sensor_id;sensor_type;location;lat;lon;timestamp;temperature;humidity
3994;DHT22;2011;48.238;13.948;2022-12-29T00:00:16;0.60;99.90
3994;DHT22;2011;48.238;13.948;2022-12-29T00:02:43;0.70;99.90
3994;DHT22;2011;48.238;13.948;2022-12-29T00:05:10;0.70;99.90
3994;DHT22;2011;48.238;13.948;2022-12-29T00:07:38;0.70;99.90
3994;DHT22;2011;48.238;13.948;2022-12-29T00:10:07;0.70;99.90
3994;DHT22;2011;48.238;13.948;2022-12-29T00:12:34;0.70;99.90
3994;DHT22;2011;48.238;13.948;2022-12-29T00:15:14;0.70;99.90
3994;DHT22;2011;48.238;13.948;2022-12-29T00:17:59;0.70;99.90
3994;DHT22;2011;48.238;13.948;2022-12-29T00:20:25;0.70;99.90
3994;DHT22;2011;48.238;13.948;2022-12-29T00:23:11;0.70;99.90
3994;DHT22;2011;48.238;13.948;2022-12-29T00:25:56;0.70;99.90
3994;DHT22;2011;48.238;13.948;2022-12-29T00:28:40;0.80;99.90
3994;DHT22;2011;48.238;13.948;2022-12-29T00:31:24;0.90;99.90
3994;DHT22;2011;48.238;13.948;2022-12-29T00:34:11;0.90;99.90
3994;DHT22;2011;48.238;13.948;2022-12-29T00:36:56;0.90;99.90
3994;DHT22;2011;48.238;13.948;2022-12-29T00:39:24;0.90;99.90
3994;DHT22;2011;48.238;13.948;2022-12-29T00:42:09;1.00;99.90
3994;DHT22;2011;48.238;13.948;2022-12-29T00:44:58;1.00;99.90
3994;DHT22;2011;48.238;13.948;2022-12-29T00:47:25;1.00;99.90
3994;DHT22;2011;48.238;13.948;2022-12-29T00:49:52;1.00;99.90
3994;DHT22;2011;48.238;13.948;2022-12-29T00:52:18;1.00;99.90
3994;DHT22;2011;48.238;13.948;2022-12-29T00:54:46;1.00;99.90
3994;DHT22;2011;48.238;13.948;2022-12-29T00:57:13;0.90;99.90
3994;DHT22;2011;48.238;13.948;2022-12-29T00:59:41;0.90;99.90
3994;DHT22;2011;48.238;13.948;2022-12-29T01:02:09;0.90;99.90
3994;DHT22;2011;48.238;13.948;2022-12-29T01:04:36;0.90;99.90
3994;DHT22;2011;48.238;13.948;2022-12-29T01:07:04;0.80;99.90
3994;DHT22;2011;48.238;13.948;2022-12-29T01:09:31;0.80;99.90
3994;DHT22;2011;48.238;13.948;2022-12-29T01:12:17;0.80;99.90
3994;DHT22;2011;48.238;13.948;2022-12-29T01:15:06;0.80;99.90
3994;DHT22;2011;48.238;13.948;2022-12-29T01:17:33;0.80;99.90
3994;DHT22;2011;48.238;13.948;2022-12-29T01:20:00;0.80;99.90
3994;DHT22;2011;48.238;13.948;2022-12-29T01:22:28;0.80;99.90
3994;DHT22;2011;48.238;13.948;2022-12-29T01:24:55;0.80;99.90
3994;DHT22;2011;48.238;13.948;2022-12-29T01:27:23;0.80;99.90
3994;DHT22;2011;48.238;13.948;2022-12-29T01:29:50;0.70;99.90
3994;DHT22;2011;48.238;13.948;2022-12-29T01:32:17;0.70;99.90
3994;DHT22;2011;48.238;13.948;2022-12-29T01:34:44;0.70;99.90
3994;DHT22;2011;48.238;13.948;2022-12-29T01:37:11;0.70;99.90
3994;DHT22;2011;48.238;13.948;2022-12-29T01:39:38;0.70;99.90
3994;DHT22;2011;48.238;13.948;2022-12-29T01:42:14;0.80;99.90
3994;DHT22;2011;48.238;13.948;2022-12-29T01:44:51;0.80;99.90
3994;DHT22;2011;48.238;13.948;2022-12-29T01:47:25;0.80;99.90
3994;DHT22;2011;48.238;13.948;2022-12-29T01:49:55;0.80;99.90
3994;DHT22;2011;48.238;13.948;2022-12-29T01:52:24;0.80;99.90
3994;DHT22;2011;48.238;13.948;2022-12-29T01:54:55;0.80;99.90
3994;DHT22;2011;48.238;13.948;2022-12-29T01:57:25;0.80;99.90
3994;DHT22;2011;48.238;13.948;2022-12-29T01:59:59;0.80;99.90
3994;DHT22;2011;48.238;13.948;2022-12-29T02:02:27;0.80;99.90
3994;DHT22;2011;48.238;13.948;2022-12-29T02:04:56;0.80;99.90
3994;DHT22;2011;48.238;13.948;2022-12-29T02:07:26;0.80;99.90
3994;DHT22;2011;48.238;13.948;2022-12-29T02:09:55;0.80;99.90
3994;DHT22;2011;48.238;13.948;2022-12-29T02:12:23;0.80;99.90
3994;DHT22;2011;48.238;13.948;2022-12-29T02:14:55;0.80;99.90
3994;DHT22;2011;48.238;13.948;2022-12-29T02:17:32;0.80;99.90
3994;DHT22;2011;48.238;13.948;2022-12-29T02:20:34;0.80;99.90
3994;DHT22;2011;48.238;13.948;2022-12-29T02:23:37;0.80;99.90
3994;DHT22;2011;48.238;13.948;2022-12-29T02:26:22;0.80;99.90
3994;DHT22;2011;48.238;13.948;2022-12-29T02:29:21;0.80;99.90
3994;DHT22;2011;48.238;13.948;2022-12-29T02:31:59;0.80;99.90
3994;DHT22;2011;48.238;13.948;2022-12-29T02:34:39;0.80;99.90
3994;DHT22;2011;48.238;13.948;2022-12-29T02:37:16;0.80;99.90
3994;DHT22;2011;48.238;13.948;2022-12-29T02:39:50;0.80;99.90
3994;DHT22;2011;48.238;13.948;2022-12-29T02:42:23;0.70;99.90
3994;DHT22;2011;48.238;13.948;2022-12-29T02:44:55;0.70;99.90
3994;DHT22;2011;48.238;13.948;2022-12-29T02:47:33;0.70;99.90
3994;DHT22;2011;48.238;13.948;2022-12-29T02:50:06;0.60;99.90
3994;DHT22;2011;48.238;13.948;2022-12-29T02:52:37;0.60;99.90
3994;DHT22;2011;48.238;13.948;2022-12-29T02:55:06;0.60;99.90
3994;DHT22;2011;48.238;13.948;2022-12-29T02:57:34;0.50;99.90
3994;DHT22;2011;48.238;13.948;2022-12-29T03:00:04;0.50;99.90
3994;DHT22;2011;48.238;13.948;2022-12-29T03:03:06;0.50;99.90
3994;DHT22;2011;48.238;13.948;2022-12-29T03:05:58;0.40;99.90
3994;DHT22;2011;48.238;13.948;2022-12-29T03:08:34;0.40;99.90
3994;DHT22;2011;48.238;13.948;2022-12-29T03:11:08;0.40;99.90
3994;DHT22;2011;48.238;13.948;2022-12-29T03:14:00;0.30;99.90
3994;DHT22;2011;48.238;13.948;2022-12-29T03:16:48;0.30;99.90
3994;DHT22;2011;48.238;13.948;2022-12-29T03:19:21;0.30;99.90
3994;DHT22;2011;48.238;13.948;2022-12-29T03:21:55;0.30;99.90
3994;DHT22;2011;48.238;13.948;2022-12-29T03:24:43;0.20;99.90
3994;DHT22;2011;48.238;13.948;2022-12-29T03:27:15;0.30;99.90
3994;DHT22;2011;48.238;13.948;2022-12-29T03:29:47;0.30;99.90
3994;DHT22;2011;48.238;13.948;2022-12-29T03:32:19;0.40;99.90
3994;DHT22;2011;48.238;13.948;2022-12-29T03:34:49;0.40;99.90
3994;DHT22;2011;48.238;13.948;2022-12-29T03:37:20;0.40;99.90
3994;DHT22;2011;48.238;13.948;2022-12-29T03:39:48;0.40;99.90
3994;DHT22;2011;48.238;13.948;2022-12-29T03:42:19;0.40;99.90
3994;DHT22;2011;48.238;13.948;2022-12-29T03:44:46;0.40;99.90
3994;DHT22;2011;48.238;13.948;2022-12-29T03:47:14;0.30;99.90
3994;DHT22;2011;48.238;13.948;2022-12-29T03:49:41;0.30;99.90
3994;DHT22;2011;48.238;13.948;2022-12-29T03:52:09;0.30;99.90
3994;DHT22;2011;48.238;13.948;2022-12-29T03:54:36;0.20;99.90
3994;DHT22;2011;48.238;13.948;2022-12-29T03:57:03;0.20;99.90
3994;DHT22;2011;48.238;13.948;2022-12-29T03:59:30;0.20;99.90
3994;DHT22;2011;48.238;13.948;2022-12-29T04:01:57;0.20;99.90
3994;DHT22;2011;48.238;13.948;2022-12-29T04:04:24;0.10;99.90
3994;DHT22;2011;48.238;13.948;2022-12-29T04:06:51;0.10;99.90
3994;DHT22;2011;48.238;13.948;2022-12-29T04:09:19;0.10;99.90
3994;DHT22;2011;48.238;13.948;2022-12-29T04:11:46;0.10;99.90
3994;DHT22;2011;48.238;13.948;2022-12-29T04:14:13;0.10;99.90
3994;DHT22;2011;48.238;13.948;2022-12-29T04:16:40;0.00;99.90
3994;DHT22;2011;48.238;13.948;2022-12-29T04:19:07;0.00;99.90
3994;DHT22;2011;48.238;13.948;2022-12-29T04:21:34;0.00;99.90
3994;DHT22;2011;48.238;13.948;2022-12-29T04:24:01;0.00;99.90
3994;DHT22;2011;48.238;13.948;2022-12-29T04:26:29;0.00;99.90
3994;DHT22;2011;48.238;13.948;2022-12-29T04:28:56;0.00;99.90
3994;DHT22;2011;48.238;13.948;2022-12-29T04:31:23;-0.10;99.90
3994;DHT22;2011;48.238;13.948;2022-12-29T04:33:50;-0.10;99.90
3994;DHT22;2011;48.238;13.948;2022-12-29T04:36:17;-0.10;99.90
3994;DHT22;2011;48.238;13.948;2022-12-29T04:38:44;-0.10;99.90
3994;DHT22;2011;48.238;13.948;2022-12-29T04:41:11;-0.10;99.90
3994;DHT22;2011;48.238;13.948;2022-12-29T04:43:39;-0.10;99.90
3994;DHT22;2011;48.238;13.948;2022-12-29T04:46:06;-0.10;99.90
3994;DHT22;2011;48.238;13.948;2022-12-29T04:48:33;0.00;99.90
3994;DHT22;2011;48.238;13.948;2022-12-29T04:51:00;0.10;99.90
3994;DHT22;2011;48.238;13.948;2022-12-29T04:53:27;0.10;99.90
3994;DHT22;2011;48.238;13.948;2022-12-29T04:55:54;0.10;99.90
3994;DHT22;2011;48.238;13.948;2022-12-29T04:58:21;0.20;99.90
3994;DHT22;2011;48.238;13.948;2022-12-29T05:00:49;0.20;99.90
3994;DHT22;2011;48.238;13.948;2022-12-29T05:03:16;0.20;99.90
3994;DHT22;2011;48.238;13.948;2022-12-29T05:05:43;0.20;99.90
3994;DHT22;2011;48.238;13.948;2022-12-29T05:08:10;0.20;99.90
3994;DHT22;2011;48.238;13.948;2022-12-29T05:10:37;0.20;99.90
3994;DHT22;2011;48.238;13.948;2022-12-29T05:13:04;0.20;99.90
3994;DHT22;2011;48.238;13.948;2022-12-29T05:15:31;0.20;99.90
3994;DHT22;2011;48.238;13.948;2022-12-29T05:17:59;0.20;99.90
3994;DHT22;2011;48.238;13.948;2022-12-29T05:20:26;0.10;99.90
3994;DHT22;2011;48.238;13.948;2022-12-29T05:22:53;0.10;99.90
3994;DHT22;2011;48.238;13.948;2022-12-29T05:25:20;0.10;99.90
3994;DHT22;2011;48.238;13.948;2022-12-29T05:27:47;0.00;99.90
3994;DHT22;2011;48.238;13.948;2022-12-29T05:30:13;0.00;99.90
3994;DHT22;2011;48.238;13.948;2022-12-29T05:32:40;0.00;99.90
3994;DHT22;2011;48.238;13.948;2022-12-29T05:35:09;0.00;99.90
3994;DHT22;2011;48.238;13.948;2022-12-29T05:37:36;-0.10;99.90
3994;DHT22;2011;48.238;13.948;2022-12-29T05:40:03;-0.10;99.90
3994;DHT22;2011;48.238;13.948;2022-12-29T05:42:30;-0.10;99.90
3994;DHT22;2011;48.238;13.948;2022-12-29T05:44:57;-0.10;99.90
3994;DHT22;2011;48.238;13.948;2022-12-29T05:47:24;0.00;99.90
3994;DHT22;2011;48.238;13.948;2022-12-29T05:49:51;0.00;99.90
3994;DHT22;2011;48.238;13.948;2022-12-29T05:52:19;0.10;99.90
3994;DHT22;2011;48.238;13.948;2022-12-29T05:54:46;0.10;99.90
3994;DHT22;2011;48.238;13.948;2022-12-29T05:57:13;0.10;99.90
3994;DHT22;2011;48.238;13.948;2022-12-29T05:59:40;0.20;99.90
3994;DHT22;2011;48.238;13.948;2022-12-29T06:02:07;0.20;99.90
3994;DHT22;2011;48.238;13.948;2022-12-29T06:04:34;0.20;99.90
3994;DHT22;2011;48.238;13.948;2022-12-29T06:07:01;0.30;99.90
3994;DHT22;2011;48.238;13.948;2022-12-29T06:09:29;0.30;99.90
3994;DHT22;2011;48.238;13.948;2022-12-29T06:11:56;0.30;99.90
3994;DHT22;2011;48.238;13.948;2022-12-29T06:14:23;0.30;99.90
3994;DHT22;2011;48.238;13.948;2022-12-29T06:16:50;0.30;99.90
3994;DHT22;2011;48.238;13.948;2022-12-29T06:19:16;0.30;99.90
3994;DHT22;2011;48.238;13.948;2022-12-29T06:21:43;0.30;99.90
3994;DHT22;2011;48.238;13.948;2022-12-29T06:24:10;0.30;99.90
3994;DHT22;2011;48.238;13.948;2022-12-29T06:26:38;0.30;99.90
3994;DHT22;2011;48.238;13.948;2022-12-29T06:29:05;0.30;99.90
3994;DHT22;2011;48.238;13.948;2022-12-29T06:31:33;0.20;99.90
3994;DHT22;2011;48.238;13.948;2022-12-29T06:34:00;0.20;99.90
3994;DHT22;2011;48.238;13.948;2022-12-29T06:36:28;0.20;99.90
3994;DHT22;2011;48.238;13.948;2022-12-29T06:38:55;0.20;99.90
3994;DHT22;2011;48.238;13.948;2022-12-29T06:41:22;0.20;99.90
3994;DHT22;2011;48.238;13.948;2022-12-29T06:43:51;0.20;99.90
3994;DHT22;2011;48.238;13.948;2022-12-29T06:46:17;0.20;99.90
3994;DHT22;2011;48.238;13.948;2022-12-29T06:48:44;0.20;99.90
3994;DHT22;2011;48.238;13.948;2022-12-29T06:51:12;0.20;99.90
3994;DHT22;2011;48.238;13.948;2022-12-29T06:53:38;0.10;99.90
3994;DHT22;2011;48.238;13.948;2022-12-29T06:56:06;0.00;99.90
3994;DHT22;2011;48.238;13.948;2022-12-29T06:58:33;0.00;99.90
3994;DHT22;2011;48.238;13.948;2022-12-29T07:01:02;0.00;99.90
3994;DHT22;2011;48.238;13.948;2022-12-29T07:03:29;0.00;99.90
3994;DHT22;2011;48.238;13.948;2022-12-29T07:05:56;0.10;99.90
3994;DHT22;2011;48.238;13.948;2022-12-29T07:08:23;0.20;99.90
3994;DHT22;2011;48.238;13.948;2022-12-29T07:10:50;0.30;99.90
3994;DHT22;2011;48.238;13.948;2022-12-29T07:13:17;0.40;99.90
3994;DHT22;2011;48.238;13.948;2022-12-29T07:15:44;0.40;99.90
3994;DHT22;2011;48.238;13.948;2022-12-29T07:18:13;0.50;99.90
3994;DHT22;2011;48.238;13.948;2022-12-29T07:20:40;0.50;99.90
3994;DHT22;2011;48.238;13.948;2022-12-29T07:23:07;0.50;99.90
3994;DHT22;2011;48.238;13.948;2022-12-29T07:25:34;0.50;99.90
3994;DHT22;2011;48.238;13.948;2022-12-29T07:28:01;0.60;99.90
3994;DHT22;2011;48.238;13.948;2022-12-29T07:30:29;0.60;99.90
3994;DHT22;2011;48.238;13.948;2022-12-29T07:32:56;0.60;99.90
3994;DHT22;2011;48.238;13.948;2022-12-29T07:35:25;0.60;99.90
3994;DHT22;2011;48.238;13.948;2022-12-29T07:37:52;0.60;99.90
3994;DHT22;2011;48.238;13.948;2022-12-29T07:40:19;0.70;99.90
3994;DHT22;2011;48.238;13.948;2022-12-29T07:42:46;0.70;99.90
3994;DHT22;2011;48.238;13.948;2022-12-29T07:45:13;0.70;99.90
3994;DHT22;2011;48.238;13.948;2022-12-29T07:47:40;0.80;99.90
3994;DHT22;2011;48.238;13.948;2022-12-29T07:50:07;0.90;99.90
3994;DHT22;2011;48.238;13.948;2022-12-29T07:52:35;0.90;99.90
3994;DHT22;2011;48.238;13.948;2022-12-29T07:55:03;1.00;99.90
3994;DHT22;2011;48.238;13.948;2022-12-29T07:57:30;1.00;99.90
3994;DHT22;2011;48.238;13.948;2022-12-29T07:59:57;1.00;99.90
3994;DHT22;2011;48.238;13.948;2022-12-29T08:02:24;1.10;99.90
3994;DHT22;2011;48.238;13.948;2022-12-29T08:04:51;1.20;99.90
3994;DHT22;2011;48.238;13.948;2022-12-29T08:07:18;1.20;99.90
3994;DHT22;2011;48.238;13.948;2022-12-29T08:09:47;1.30;99.90
3994;DHT22;2011;48.238;13.948;2022-12-29T08:12:14;1.30;99.90
3994;DHT22;2011;48.238;13.948;2022-12-29T08:14:41;1.40;99.90
3994;DHT22;2011;48.238;13.948;2022-12-29T08:17:08;1.40;99.90
3994;DHT22;2011;48.238;13.948;2022-12-29T08:19:35;1.50;99.90
3994;DHT22;2011;48.238;13.948;2022-12-29T08:22:02;1.50;99.90
3994;DHT22;2011;48.238;13.948;2022-12-29T08:24:30;1.60;99.90
3994;DHT22;2011;48.238;13.948;2022-12-29T08:26:58;1.60;99.90
3994;DHT22;2011;48.238;13.948;2022-12-29T08:29:25;1.60;99.90
3994;DHT22;2011;48.238;13.948;2022-12-29T08:31:52;1.60;99.90
3994;DHT22;2011;48.238;13.948;2022-12-29T08:34:19;1.60;99.90
3994;DHT22;2011;48.238;13.948;2022-12-29T08:36:46;1.60;99.90
3994;DHT22;2011;48.238;13.948;2022-12-29T08:39:13;1.70;99.90
3994;DHT22;2011;48.238;13.948;2022-12-29T08:41:40;1.70;99.90
3994;DHT22;2011;48.238;13.948;2022-12-29T08:44:09;1.80;99.90
3994;DHT22;2011;48.238;13.948;2022-12-29T08:46:36;1.90;99.90
3994;DHT22;2011;48.238;13.948;2022-12-29T08:49:03;1.90;99.90
3994;DHT22;2011;48.238;13.948;2022-12-29T08:51:30;1.90;99.90
3994;DHT22;2011;48.238;13.948;2022-12-29T08:53:58;2.00;99.90
3994;DHT22;2011;48.238;13.948;2022-12-29T08:56:25;2.00;99.90
3994;DHT22;2011;48.238;13.948;2022-12-29T08:58:53;2.10;99.90
3994;DHT22;2011;48.238;13.948;2022-12-29T09:01:22;2.10;99.90
3994;DHT22;2011;48.238;13.948;2022-12-29T09:03:49;2.10;99.90
3994;DHT22;2011;48.238;13.948;2022-12-29T09:06:17;2.20;99.90
3994;DHT22;2011;48.238;13.948;2022-12-29T09:08:44;2.20;99.90
3994;DHT22;2011;48.238;13.948;2022-12-29T09:11:14;2.20;99.90
3994;DHT22;2011;48.238;13.948;2022-12-29T09:13:42;2.30;99.90
3994;DHT22;2011;48.238;13.948;2022-12-29T09:16:09;2.30;99.90
3994;DHT22;2011;48.238;13.948;2022-12-29T09:18:38;2.30;99.90
3994;DHT22;2011;48.238;13.948;2022-12-29T09:21:06;2.40;99.90
3994;DHT22;2011;48.238;13.948;2022-12-29T09:23:34;2.40;99.90
3994;DHT22;2011;48.238;13.948;2022-12-29T09:26:01;2.50;99.90
3994;DHT22;2011;48.238;13.948;2022-12-29T09:28:28;2.60;99.90
3994;DHT22;2011;48.238;13.948;2022-12-29T09:30:55;2.60;99.90
3994;DHT22;2011;48.238;13.948;2022-12-29T09:33:22;2.70;99.90
3994;DHT22;2011;48.238;13.948;2022-12-29T09:35:52;2.80;99.90
3994;DHT22;2011;48.238;13.948;2022-12-29T09:38:20;2.80;99.90
3994;DHT22;2011;48.238;13.948;2022-12-29T09:40:50;2.90;99.90
3994;DHT22;2011;48.238;13.948;2022-12-29T09:46:18;3.00;99.90
3994;DHT22;2011;48.238;13.948;2022-12-29T09:49:05;3.00;99.90
3994;DHT22;2011;48.238;13.948;2022-12-29T09:51:37;3.10;99.90
3994;DHT22;2011;48.238;13.948;2022-12-29T09:54:19;3.10;99.90
3994;DHT22;2011;48.238;13.948;2022-12-29T09:56:48;3.20;99.90
3994;DHT22;2011;48.238;13.948;2022-12-29T09:59:17;3.20;99.90
3994;DHT22;2011;48.238;13.948;2022-12-29T10:01:51;3.30;99.90
3994;DHT22;2011;48.238;13.948;2022-12-29T10:04:19;3.30;99.90
3994;DHT22;2011;48.238;13.948;2022-12-29T10:06:58;3.30;99.90
3994;DHT22;2011;48.238;13.948;2022-12-29T10:09:32;3.40;99.90
3994;DHT22;2011;48.238;13.948;2022-12-29T10:12:11;3.40;99.90
3994;DHT22;2011;48.238;13.948;2022-12-29T10:14:55;3.50;99.90
3994;DHT22;2011;48.238;13.948;2022-12-29T10:17:29;3.50;99.90
3994;DHT22;2011;48.238;13.948;2022-12-29T10:20:25;3.60;99.90
3994;DHT22;2011;48.238;13.948;2022-12-29T10:23:10;3.70;99.90
3994;DHT22;2011;48.238;13.948;2022-12-29T10:25:42;3.90;99.90
3994;DHT22;2011;48.238;13.948;2022-12-29T10:28:19;4.10;99.90
3994;DHT22;2011;48.238;13.948;2022-12-29T10:30:48;4.30;99.90
3994;DHT22;2011;48.238;13.948;2022-12-29T10:33:19;4.40;99.90
3994;DHT22;2011;48.238;13.948;2022-12-29T10:35:47;4.40;99.90
3994;DHT22;2011;48.238;13.948;2022-12-29T10:38:22;4.50;99.90
3994;DHT22;2011;48.238;13.948;2022-12-29T10:40:54;4.50;99.90
3994;DHT22;2011;48.238;13.948;2022-12-29T10:43:26;4.60;99.90
3994;DHT22;2011;48.238;13.948;2022-12-29T10:45:54;4.60;99.90
3994;DHT22;2011;48.238;13.948;2022-12-29T10:48:25;4.60;99.90
3994;DHT22;2011;48.238;13.948;2022-12-29T10:50:55;4.60;99.90
3994;DHT22;2011;48.238;13.948;2022-12-29T10:53:27;4.60;99.90
3994;DHT22;2011;48.238;13.948;2022-12-29T10:55:55;4.60;99.90
3994;DHT22;2011;48.238;13.948;2022-12-29T10:58:23;4.80;99.90
3994;DHT22;2011;48.238;13.948;2022-12-29T11:00:52;4.90;99.90
3994;DHT22;2011;48.238;13.948;2022-12-29T11:03:39;5.00;99.90
3994;DHT22;2011;48.238;13.948;2022-12-29T11:06:11;5.10;99.90
3994;DHT22;2011;48.238;13.948;2022-12-29T11:08:47;5.20;99.90
3994;DHT22;2011;48.238;13.948;2022-12-29T11:11:23;5.30;99.90
3994;DHT22;2011;48.238;13.948;2022-12-29T11:13:56;5.30;99.90
3994;DHT22;2011;48.238;13.948;2022-12-29T11:16:28;5.30;99.90
3994;DHT22;2011;48.238;13.948;2022-12-29T11:18:57;5.40;99.90
3994;DHT22;2011;48.238;13.948;2022-12-29T11:21:30;5.50;99.90
3994;DHT22;2011;48.238;13.948;2022-12-29T11:24:00;5.50;99.90
3994;DHT22;2011;48.238;13.948;2022-12-29T11:26:28;5.60;99.90
3994;DHT22;2011;48.238;13.948;2022-12-29T11:29:17;5.50;99.90
3994;DHT22;2011;48.238;13.948;2022-12-29T11:31:47;5.60;99.90
3994;DHT22;2011;48.238;13.948;2022-12-29T11:34:19;5.60;99.90
3994;DHT22;2011;48.238;13.948;2022-12-29T11:36:47;5.70;99.90
3994;DHT22;2011;48.238;13.948;2022-12-29T11:39:34;5.70;99.90
3994;DHT22;2011;48.238;13.948;2022-12-29T11:42:04;5.70;99.90
3994;DHT22;2011;48.238;13.948;2022-12-29T11:44:37;5.70;99.90
3994;DHT22;2011;48.238;13.948;2022-12-29T11:47:05;5.80;99.90
3994;DHT22;2011;48.238;13.948;2022-12-29T11:49:34;5.80;99.90
3994;DHT22;2011;48.238;13.948;2022-12-29T11:52:01;5.80;99.90
3994;DHT22;2011;48.238;13.948;2022-12-29T11:54:33;5.80;99.90
3994;DHT22;2011;48.238;13.948;2022-12-29T11:57:10;5.90;99.90
3994;DHT22;2011;48.238;13.948;2022-12-29T11:59:43;5.90;99.90
3994;DHT22;2011;48.238;13.948;2022-12-29T12:02:46;5.90;99.90
3994;DHT22;2011;48.238;13.948;2022-12-29T12:05:23;6.10;99.90
3994;DHT22;2011;48.238;13.948;2022-12-29T12:07:56;6.10;99.90
3994;DHT22;2011;48.238;13.948;2022-12-29T12:10:29;6.10;99.90
3994;DHT22;2011;48.238;13.948;2022-12-29T12:13:03;6.20;99.90
3994;DHT22;2011;48.238;13.948;2022-12-29T12:15:36;6.20;99.90
3994;DHT22;2011;48.238;13.948;2022-12-29T12:18:09;6.30;99.90
3994;DHT22;2011;48.238;13.948;2022-12-29T12:20:44;6.40;99.90
3994;DHT22;2011;48.238;13.948;2022-12-29T12:23:25;6.40;99.90
3994;DHT22;2011;48.238;13.948;2022-12-29T12:26:01;6.50;99.90
3994;DHT22;2011;48.238;13.948;2022-12-29T12:28:36;6.50;99.90
3994;DHT22;2011;48.238;13.948;2022-12-29T12:31:11;6.50;99.90
3994;DHT22;2011;48.238;13.948;2022-12-29T12:33:44;6.50;99.90
3994;DHT22;2011;48.238;13.948;2022-12-29T12:36:44;6.50;99.90
3994;DHT22;2011;48.238;13.948;2022-12-29T12:39:21;6.50;99.90
3994;DHT22;2011;48.238;13.948;2022-12-29T12:42:00;6.60;99.90
3994;DHT22;2011;48.238;13.948;2022-12-29T12:44:36;6.70;99.90
3994;DHT22;2011;48.238;13.948;2022-12-29T12:47:26;6.80;99.90
3994;DHT22;2011;48.238;13.948;2022-12-29T12:50:15;6.80;99.90
3994;DHT22;2011;48.238;13.948;2022-12-29T12:55:56;6.90;99.90
3994;DHT22;2011;48.238;13.948;2022-12-29T12:58:31;7.00;99.90
3994;DHT22;2011;48.238;13.948;2022-12-29T13:01:11;7.10;99.90
3994;DHT22;2011;48.238;13.948;2022-12-29T13:03:52;7.10;99.90
3994;DHT22;2011;48.238;13.948;2022-12-29T13:06:31;7.20;99.90
3994;DHT22;2011;48.238;13.948;2022-12-29T13:09:11;7.20;99.90
3994;DHT22;2011;48.238;13.948;2022-12-29T13:11:54;7.10;99.90
3994;DHT22;2011;48.238;13.948;2022-12-29T13:14:37;7.20;99.90
3994;DHT22;2011;48.238;13.948;2022-12-29T13:17:15;7.20;99.90
3994;DHT22;2011;48.238;13.948;2022-12-29T13:19:50;7.20;99.90
3994;DHT22;2011;48.238;13.948;2022-12-29T13:22:24;7.10;99.90
3994;DHT22;2011;48.238;13.948;2022-12-29T13:25:01;7.20;99.90
3994;DHT22;2011;48.238;13.948;2022-12-29T13:27:35;7.20;99.90
3994;DHT22;2011;48.238;13.948;2022-12-29T13:30:10;7.10;99.90
3994;DHT22;2011;48.238;13.948;2022-12-29T13:32:49;7.10;99.90
3994;DHT22;2011;48.238;13.948;2022-12-29T13:35:37;7.10;99.90
3994;DHT22;2011;48.238;13.948;2022-12-29T13:38:12;7.00;99.90
3994;DHT22;2011;48.238;13.948;2022-12-29T13:40:43;6.90;99.90
3994;DHT22;2011;48.238;13.948;2022-12-29T13:43:12;6.80;99.90
3994;DHT22;2011;48.238;13.948;2022-12-29T13:45:42;6.80;99.90
3994;DHT22;2011;48.238;13.948;2022-12-29T13:48:15;6.80;99.90
3994;DHT22;2011;48.238;13.948;2022-12-29T13:50:46;6.80;99.90
3994;DHT22;2011;48.238;13.948;2022-12-29T13:53:23;6.90;99.90
3994;DHT22;2011;48.238;13.948;2022-12-29T13:55:56;6.80;99.90
3994;DHT22;2011;48.238;13.948;2022-12-29T13:58:31;6.80;99.90
3994;DHT22;2011;48.238;13.948;2022-12-29T14:01:10;6.80;99.90
3994;DHT22;2011;48.238;13.948;2022-12-29T14:03:47;6.80;99.90
3994;DHT22;2011;48.238;13.948;2022-12-29T14:06:19;6.70;99.90
3994;DHT22;2011;48.238;13.948;2022-12-29T14:08:48;6.70;99.90
3994;DHT22;2011;48.238;13.948;2022-12-29T14:11:16;6.60;99.90
3994;DHT22;2011;48.238;13.948;2022-12-29T14:13:46;6.70;99.90
3994;DHT22;2011;48.238;13.948;2022-12-29T14:16:29;6.60;99.90
3994;DHT22;2011;48.238;13.948;2022-12-29T14:19:04;6.60;99.90
3994;DHT22;2011;48.238;13.948;2022-12-29T14:21:32;6.50;99.90
3994;DHT22;2011;48.238;13.948;2022-12-29T14:30:05;6.40;99.90
3994;DHT22;2011;48.238;13.948;2022-12-29T14:33:13;6.30;99.90
3994;DHT22;2011;48.238;13.948;2022-12-29T14:35:42;6.30;99.90
3994;DHT22;2011;48.238;13.948;2022-12-29T14:38:30;6.30;99.90
3994;DHT22;2011;48.238;13.948;2022-12-29T14:41:32;6.40;99.90
3994;DHT22;2011;48.238;13.948;2022-12-29T14:44:14;6.20;99.90
3994;DHT22;2011;48.238;13.948;2022-12-29T14:46:45;6.20;99.90
3994;DHT22;2011;48.238;13.948;2022-12-29T14:49:19;6.10;99.90
3994;DHT22;2011;48.238;13.948;2022-12-29T14:51:47;6.10;99.90
3994;DHT22;2011;48.238;13.948;2022-12-29T14:54:41;6.10;99.90
3994;DHT22;2011;48.238;13.948;2022-12-29T14:57:14;6.00;99.90
3994;DHT22;2011;48.238;13.948;2022-12-29T14:59:43;5.90;99.90
3994;DHT22;2011;48.238;13.948;2022-12-29T15:02:16;6.00;99.90
3994;DHT22;2011;48.238;13.948;2022-12-29T15:04:47;5.90;99.90
3994;DHT22;2011;48.238;13.948;2022-12-29T15:07:14;6.00;99.90
3994;DHT22;2011;48.238;13.948;2022-12-29T15:09:44;5.80;99.90
3994;DHT22;2011;48.238;13.948;2022-12-29T15:12:20;5.90;99.90
3994;DHT22;2011;48.238;13.948;2022-12-29T15:14:53;5.70;99.90
3994;DHT22;2011;48.238;13.948;2022-12-29T15:17:25;5.70;99.90
3994;DHT22;2011;48.238;13.948;2022-12-29T15:19:54;5.50;99.90
3994;DHT22;2011;48.238;13.948;2022-12-29T15:22:22;5.50;99.90
3994;DHT22;2011;48.238;13.948;2022-12-29T15:24:50;5.50;99.90
3994;DHT22;2011;48.238;13.948;2022-12-29T15:27:21;5.40;99.90
3994;DHT22;2011;48.238;13.948;2022-12-29T15:29:56;5.30;99.90
3994;DHT22;2011;48.238;13.948;2022-12-29T15:32:24;5.20;99.90
3994;DHT22;2011;48.238;13.948;2022-12-29T15:34:55;5.20;99.90
3994;DHT22;2011;48.238;13.948;2022-12-29T15:37:25;5.10;99.90
3994;DHT22;2011;48.238;13.948;2022-12-29T15:39:54;5.10;99.90
3994;DHT22;2011;48.238;13.948;2022-12-29T15:42:49;5.00;99.90
3994;DHT22;2011;48.238;13.948;2022-12-29T15:45:17;4.90;99.90
3994;DHT22;2011;48.238;13.948;2022-12-29T15:47:45;4.90;99.90
3994;DHT22;2011;48.238;13.948;2022-12-29T15:50:22;4.90;99.90
3994;DHT22;2011;48.238;13.948;2022-12-29T15:52:49;4.80;99.90
3994;DHT22;2011;48.238;13.948;2022-12-29T15:55:20;4.80;99.90
3994;DHT22;2011;48.238;13.948;2022-12-29T15:57:48;4.80;99.90
3994;DHT22;2011;48.238;13.948;2022-12-29T16:00:28;4.80;99.90
3994;DHT22;2011;48.238;13.948;2022-12-29T16:02:58;4.70;99.90
3994;DHT22;2011;48.238;13.948;2022-12-29T16:05:33;4.70;99.90
3994;DHT22;2011;48.238;13.948;2022-12-29T16:08:02;4.60;99.90
3994;DHT22;2011;48.238;13.948;2022-12-29T16:10:32;4.60;99.90
3994;DHT22;2011;48.238;13.948;2022-12-29T16:13:05;4.60;99.90
3994;DHT22;2011;48.238;13.948;2022-12-29T16:15:33;4.50;99.90
3994;DHT22;2011;48.238;13.948;2022-12-29T16:18:00;4.50;99.90
3994;DHT22;2011;48.238;13.948;2022-12-29T16:20:39;4.40;99.90
3994;DHT22;2011;48.238;13.948;2022-12-29T16:23:16;4.40;99.90
3994;DHT22;2011;48.238;13.948;2022-12-29T16:25:45;4.40;99.90
3994;DHT22;2011;48.238;13.948;2022-12-29T16:28:17;4.40;99.90
3994;DHT22;2011;48.238;13.948;2022-12-29T16:30:44;4.40;99.90
3994;DHT22;2011;48.238;13.948;2022-12-29T16:33:32;4.30;99.90
3994;DHT22;2011;48.238;13.948;2022-12-29T16:36:01;4.20;99.90
3994;DHT22;2011;48.238;13.948;2022-12-29T16:38:33;4.20;99.90
3994;DHT22;2011;48.238;13.948;2022-12-29T16:41:01;4.30;99.90
3994;DHT22;2011;48.238;13.948;2022-12-29T16:43:30;4.20;99.90